Time;durP1;ratioP1;P1;durP2;ratioP2;P2;SDS_P1;SDS_P2;PMS_P1;PMS_P2;Temp;Humidity;BMP_temperature;BMP_pressure;BME280_temperature;BME280_humidity;BME280_pressure;Samples;Min_cycle;Max_cycle;Signal;HPM_P1;HPM_P2
2022/04/17 00:00:43;;;;;;;5.47;3.45;;;;;;;6.41;59.38;100755.09;1682106;83;21413;-75
2022/04/17 00:03:10;;;;;;;4.87;3.10;;;;;;;6.38;59.58;100763.49;1686707;83;21142;-77
2022/04/17 00:05:38;;;;;;;5.90;3.20;;;;;;;6.37;59.77;100755.25;1656244;84;21158;-76
2022/04/17 00:08:07;;;;;;;6.35;3.40;;;;;;;6.34;59.99;100754.66;1688466;83;21138;-77
2022/04/17 00:10:34;;;;;;;5.50;3.35;;;;;;;6.34;60.09;100767.92;1685694;83;21524;-75
2022/04/17 00:13:02;;;;;;;5.55;3.20;;;;;;;6.35;60.14;100778.04;1656402;84;21613;-76
2022/04/17 00:15:29;;;;;;;6.60;3.45;;;;;;;6.36;60.20;100757.62;1654922;85;21326;-75
2022/04/17 00:17:56;;;;;;;5.20;3.20;;;;;;;6.37;60.26;100759.23;1685066;83;21083;-76
2022/04/17 00:20:23;;;;;;;5.97;3.47;;;;;;;6.34;60.38;100750.67;1696434;83;21056;-76
2022/04/17 00:22:50;;;;;;;7.03;3.47;;;;;;;6.33;60.46;100761.00;1667653;86;21012;-75
2022/04/17 00:25:18;;;;;;;5.33;3.45;;;;;;;6.33;60.65;100755.70;1720275;81;21054;-76
2022/04/17 00:27:46;;;;;;;8.08;4.03;;;;;;;6.34;60.77;100760.48;1664550;84;21589;-76
2022/04/17 00:30:13;;;;;;;5.40;3.47;;;;;;;6.30;60.91;100756.14;1658355;84;21022;-76
2022/04/17 00:32:40;;;;;;;7.15;3.87;;;;;;;6.28;61.07;100755.55;1671178;85;21063;-75
2022/04/17 00:35:09;;;;;;;6.50;3.67;;;;;;;6.25;61.09;100759.16;1689921;84;21020;-76
2022/04/17 00:37:36;;;;;;;5.75;3.67;;;;;;;6.24;61.23;100758.36;1683468;83;21712;-76
2022/04/17 00:40:06;;;;;;;6.20;3.80;;;;;;;6.22;61.34;100758.28;1679720;83;22207;-76
2022/04/17 00:42:34;;;;;;;5.20;3.60;;;;;;;6.20;61.49;100758.52;1679522;83;21106;-76
2022/04/17 00:45:01;;;;;;;5.97;3.50;;;;;;;6.20;61.64;100757.19;1679294;83;21515;-75
2022/04/17 00:47:28;;;;;;;6.15;3.55;;;;;;;6.21;61.74;100757.47;1699040;84;21060;-74
2022/04/17 00:49:56;;;;;;;6.80;4.20;;;;;;;6.21;61.84;100760.13;1700515;83;21084;-76
2022/04/17 00:52:24;;;;;;;7.05;3.85;;;;;;;6.21;61.91;100761.97;1688325;83;21157;-76
2022/04/17 00:54:52;;;;;;;7.78;4.28;;;;;;;6.21;61.94;100752.17;1697923;84;21068;-76
2022/04/17 00:57:18;;;;;;;5.60;3.85;;;;;;;6.23;62.03;100758.08;1685579;83;21018;-75
2022/04/17 00:59:46;;;;;;;9.23;4.37;;;;;;;6.23;62.15;100756.75;1679965;83;22390;-76
2022/04/17 01:02:17;;;;;;;6.92;4.12;;;;;;;6.23;62.22;100756.75;1682446;83;21552;-76
2022/04/17 01:04:44;;;;;;;6.97;3.85;;;;;;;6.25;62.30;100762.65;1681502;83;21790;-76
2022/04/17 01:07:15;;;;;;;7.80;4.35;;;;;;;6.25;62.31;100757.84;1683418;83;21058;-76
2022/04/17 01:09:45;;;;;;;7.87;4.70;;;;;;;6.26;62.39;100753.66;1697435;84;21666;-76
2022/04/17 01:12:13;;;;;;;6.47;4.25;;;;;;;6.29;62.42;100759.03;1686478;84;21013;-77
2022/04/17 01:14:42;;;;;;;7.78;4.80;;;;;;;6.30;62.44;100757.47;1670947;85;21162;-76
2022/04/17 01:17:09;;;;;;;6.92;4.50;;;;;;;6.27;62.51;100756.59;1673703;84;21934;-77
2022/04/17 01:19:39;;;;;;;7.97;4.85;;;;;;;6.26;62.62;100748.34;1686420;83;21512;-75
2022/04/17 01:22:11;;;;;;;6.83;4.45;;;;;;;6.26;62.66;100749.67;1688492;83;21618;-74
2022/04/17 01:27:24;;;;;;;7.00;4.78;;;;;;;6.28;62.77;100750.23;1687228;83;21209;-77
2022/04/17 01:29:51;;;;;;;7.47;5.28;;;;;;;6.31;62.79;100751.64;1691925;83;21787;-77
2022/04/17 01:32:18;;;;;;;9.08;5.03;;;;;;;6.34;62.83;100748.55;1652453;86;20980;-75
2022/04/17 01:34:45;;;;;;;6.95;4.50;;;;;;;6.37;62.86;100748.63;1667966;84;21121;-75
2022/04/17 01:37:13;;;;;;;7.20;4.50;;;;;;;6.36;62.91;100751.80;1705355;84;21412;-75
2022/04/17 01:39:41;;;;;;;6.92;4.25;;;;;;;6.39;62.93;100746.04;1698528;82;21138;-75
2022/04/17 01:42:11;;;;;;;6.78;4.58;;;;;;;6.38;62.95;100735.11;1686592;83;21151;-76
2022/04/17 01:44:39;;;;;;;7.25;4.20;;;;;;;6.38;63.01;100746.25;1658971;84;21101;-76
2022/04/17 01:47:06;;;;;;;6.65;4.33;;;;;;;6.34;63.14;100731.30;1657787;84;21622;-76
2022/04/17 01:49:34;;;;;;;8.30;4.50;;;;;;;6.32;63.23;100739.50;1684355;83;21213;-75
2022/04/17 01:52:01;;;;;;;7.85;4.47;;;;;;;6.28;63.31;100737.50;1682673;83;21508;-75
2022/04/17 01:54:32;;;;;;;7.17;4.65;;;;;;;6.25;63.44;100741.43;1680388;83;21262;-75
2022/04/17 01:56:58;;;;;;;7.03;4.50;;;;;;;6.22;63.45;100733.08;1683668;83;20956;-75
2022/04/17 01:59:27;;;;;;;6.62;4.10;;;;;;;6.20;63.58;100743.13;1685292;83;20996;-75
2022/04/17 02:01:56;;;;;;;6.60;4.22;;;;;;;6.18;63.69;100734.05;1665270;84;21030;-75
2022/04/17 02:04:27;;;;;;;7.37;4.28;;;;;;;6.21;63.78;100743.41;1644837;85;21501;-76
2022/04/17 02:06:52;;;;;;;6.95;4.42;;;;;;;6.23;63.79;100738.70;1639246;87;21266;-76
2022/04/17 02:09:20;;;;;;;7.22;3.90;;;;;;;6.24;63.79;100731.83;1684693;83;21046;-75
2022/04/17 02:11:48;;;;;;;7.87;4.30;;;;;;;6.26;63.79;100735.08;1681196;83;21593;-77
2022/04/17 02:14:15;;;;;;;7.87;4.37;;;;;;;6.27;63.79;100733.23;1686106;83;21029;-77
2022/04/17 02:16:43;;;;;;;9.25;4.70;;;;;;;6.25;63.75;100733.47;1678557;82;21566;-75
2022/04/17 02:19:10;;;;;;;7.58;4.75;;;;;;;6.26;63.76;100730.30;1690055;83;21967;-78
2022/04/17 02:21:38;;;;;;;6.65;4.75;;;;;;;6.25;63.80;100730.82;1685255;83;21035;-78
2022/04/17 02:24:05;;;;;;;9.48;5.22;;;;;;;6.22;63.83;100731.27;1656611;84;21025;-77
2022/04/17 02:26:33;;;;;;;11.15;5.37;;;;;;;6.22;63.94;100730.43;1664011;84;21078;-77
2022/04/17 02:29:00;;;;;;;7.55;4.75;;;;;;;6.22;64.05;100730.43;1663869;84;21074;-76
2022/04/17 02:31:27;;;;;;;6.97;4.37;;;;;;;6.23;64.08;100730.22;1688054;83;21837;-76
2022/04/17 02:33:54;;;;;;;6.47;3.92;;;;;;;6.20;64.23;100725.88;1684564;83;21553;-75
2022/04/17 02:36:21;;;;;;;7.25;4.00;;;;;;;6.20;64.28;100722.71;1708603;83;20977;-77
2022/04/17 02:38:50;;;;;;;7.87;4.92;;;;;;;6.21;64.32;100726.17;1721589;83;21033;-77
2022/04/17 02:41:17;;;;;;;9.18;4.45;;;;;;;6.19;64.36;100719.77;1717652;83;21107;-76
2022/04/17 02:43:45;;;;;;;8.23;4.30;;;;;;;6.19;64.44;100726.92;1670093;84;21053;-75
2022/04/17 02:47:42;;;;;;;6.10;3.22;;;;;;;6.17;64.49;100713.06;1683077;83;21054;-76
2022/04/17 02:48:43;;;;;;;5.33;2.95;;;;;;;6.15;64.40;100725.73;1686775;83;21051;-76
2022/04/17 02:51:11;;;;;;;4.90;2.50;;;;;;;6.05;64.50;100716.98;1686476;83;22355;-76
2022/04/17 02:53:39;;;;;;;4.15;2.30;;;;;;;5.91;64.73;100729.55;1688578;83;21090;-76
2022/04/17 02:56:06;;;;;;;4.60;2.30;;;;;;;5.73;64.92;100720.30;1681328;83;21230;-76
2022/04/17 02:58:34;;;;;;;3.15;1.90;;;;;;;5.56;65.38;100721.36;1679869;83;21012;-75
2022/04/17 03:06:32;;;;;;;3.60;1.90;;;;;;;5.21;66.78;100720.59;1688629;83;21071;-76
2022/04/17 03:09:01;;;;;;;2.70;1.85;;;;;;;5.14;67.22;100719.84;1682133;83;21125;-77
2022/04/17 03:11:29;;;;;;;4.40;2.30;;;;;;;5.10;67.61;100727.90;1688217;83;21573;-76
2022/04/17 03:13:57;;;;;;;3.52;2.10;;;;;;;5.11;67.96;100726.89;1678078;83;20995;-77
2022/04/17 03:16:23;;;;;;;3.17;2.10;;;;;;;5.12;68.28;100728.50;1679193;83;21578;-76
2022/04/17 03:18:52;;;;;;;6.55;2.87;;;;;;;5.13;68.62;100723.50;1655178;84;21032;-76
2022/04/17 03:21:19;;;;;;;7.65;3.92;;;;;;;5.16;68.96;100727.03;1680442;83;21462;-75
2022/04/17 03:23:46;;;;;;;7.55;3.83;;;;;;;5.21;69.28;100727.20;1680884;83;21043;-76
2022/04/17 03:26:13;;;;;;;6.58;3.60;;;;;;;5.24;69.58;100734.72;1686872;83;21035;-78
2022/04/17 03:28:41;;;;;;;11.20;3.87;;;;;;;5.24;69.76;100740.02;1703790;84;21050;-77
2022/04/17 03:31:08;;;;;;;7.75;3.77;;;;;;;5.16;69.82;100739.76;1701615;84;20979;-77
2022/04/17 03:33:34;;;;;;;8.58;4.05;;;;;;;5.04;69.79;100739.38;1700873;83;21888;-76
2022/04/17 03:36:01;;;;;;;7.90;4.10;;;;;;;4.92;69.81;100734.76;1700598;84;21043;-76
2022/04/17 03:38:28;;;;;;;7.85;4.10;;;;;;;4.83;69.97;100732.59;1701279;84;21007;-75
2022/04/17 03:40:55;;;;;;;9.53;4.45;;;;;;;4.79;70.27;100738.83;1701565;84;21537;-75
2022/04/17 03:43:23;;;;;;;7.37;3.27;;;;;;;4.79;70.54;100745.96;1701876;83;20976;-76
2022/04/17 03:45:49;;;;;;;7.85;3.00;;;;;;;4.77;70.76;100741.38;1673385;85;21168;-75
2022/04/17 03:48:18;;;;;;;8.13;3.33;;;;;;;4.70;70.94;100744.07;1673281;85;20995;-76
2022/04/17 03:50:45;;;;;;;9.53;4.30;;;;;;;4.66;71.15;100748.98;1673080;85;21034;-76
2022/04/17 03:53:12;;;;;;;11.43;5.28;;;;;;;4.69;71.30;100747.75;1673154;85;21174;-75
2022/04/17 03:55:40;;;;;;;11.30;4.65;;;;;;;4.70;71.45;100746.72;1673178;85;20971;-75
2022/04/17 03:58:09;;;;;;;8.80;4.30;;;;;;;4.70;71.68;100745.39;1673237;85;21016;-76
2022/04/17 04:00:35;;;;;;;7.70;3.85;;;;;;;4.74;71.88;100745.77;1679129;83;21053;-76
2022/04/17 04:03:02;;;;;;;6.28;3.33;;;;;;;4.81;72.09;100753.98;1715481;83;21314;-76
2022/04/17 04:05:29;;;;;;;7.40;3.80;;;;;;;4.83;72.31;100750.59;1701286;84;21156;-76
2022/04/17 04:07:56;;;;;;;7.42;3.40;;;;;;;4.90;72.46;100757.17;1701615;84;21027;-76
2022/04/17 04:10:24;;;;;;;6.50;3.10;;;;;;;4.95;72.58;100753.38;1701476;84;21819;-75
2022/04/17 04:12:51;;;;;;;6.08;3.02;;;;;;;4.99;72.71;100755.08;1702715;84;20979;-75
2022/04/17 04:15:19;;;;;;;4.97;2.95;;;;;;;5.02;72.84;100747.52;1702945;84;21008;-75
2022/04/17 04:17:45;;;;;;;7.00;3.12;;;;;;;5.09;72.96;100750.11;1703670;83;21025;-76
2022/04/17 04:20:13;;;;;;;7.37;3.00;;;;;;;5.18;73.04;100754.92;1701244;84;21082;-75
2022/04/17 04:22:41;;;;;;;6.60;2.92;;;;;;;5.25;73.09;100756.72;1701386;84;21248;-76
2022/04/17 04:25:09;;;;;;;3.92;2.50;;;;;;;5.32;73.06;100749.52;1701168;84;21027;-76
2022/04/17 04:30:22;;;;;;;3.90;2.25;;;;;;;5.46;73.10;100756.83;1701449;84;21040;-75
2022/04/17 04:32:55;;;;;;;4.15;2.15;;;;;;;5.51;73.13;100763.09;1701431;83;21015;-74
2022/04/17 04:35:26;;;;;;;4.05;1.98;;;;;;;5.54;73.12;100763.98;1702273;83;21103;-76
2022/04/17 04:37:54;;;;;;;3.25;2.00;;;;;;;5.60;73.20;100763.64;1701660;84;21033;-76
2022/04/17 04:40:20;;;;;;;3.80;2.27;;;;;;;5.65;73.16;100761.94;1701573;84;21120;-76
2022/04/17 04:42:48;;;;;;;5.40;2.30;;;;;;;5.71;73.05;100768.73;1701454;84;21067;-77
2022/04/17 04:48:01;;;;;;;3.98;2.40;;;;;;;5.78;72.82;100768.94;1701612;84;21196;-76
2022/04/17 04:50:29;;;;;;;3.02;2.20;;;;;;;5.76;72.62;100767.53;1700954;83;21199;-77
2022/04/17 04:52:57;;;;;;;2.70;2.00;;;;;;;5.76;72.58;100771.02;1693461;83;20975;-76
2022/04/17 04:55:24;;;;;;;3.30;2.00;;;;;;;5.78;72.43;100772.11;1683271;83;20991;-76
2022/04/17 04:57:51;;;;;;;2.72;1.70;;;;;;;5.75;72.32;100772.03;1681021;84;21479;-77
2022/04/17 05:00:20;;;;;;;3.90;2.27;;;;;;;5.77;72.29;100780.58;1665668;86;20932;-76
2022/04/17 05:02:46;;;;;;;2.87;1.98;;;;;;;5.80;72.29;100780.15;1664133;84;21077;-75
2022/04/17 05:05:16;;;;;;;3.47;2.15;;;;;;;5.85;72.27;100778.95;1656838;85;21512;-75
2022/04/17 05:07:43;;;;;;;3.83;2.72;;;;;;;5.90;72.21;100784.14;1656533;84;21075;-76
2022/04/17 05:10:10;;;;;;;4.37;2.40;;;;;;;5.95;72.25;100780.33;1665789;84;20986;-75
2022/04/17 05:12:37;;;;;;;5.50;3.40;;;;;;;6.02;72.17;100771.77;1654426;85;21139;-76
2022/04/17 05:15:06;;;;;;;5.28;2.70;;;;;;;6.09;72.02;100777.31;1667835;84;21129;-76
2022/04/17 05:17:34;;;;;;;4.17;2.45;;;;;;;6.13;71.73;100780.86;1667915;84;20992;-76
2022/04/17 05:20:03;;;;;;;3.92;2.52;;;;;;;6.19;71.60;100782.10;1643550;84;21163;-76
2022/04/17 05:22:32;;;;;;;4.08;2.55;;;;;;;6.24;71.34;100770.81;1654708;84;21113;-77
2022/04/17 05:25:01;;;;;;;3.58;2.15;;;;;;;6.26;71.02;100774.88;1656203;84;20989;-76
2022/04/17 05:27:29;;;;;;;3.62;2.40;;;;;;;6.29;70.91;100780.25;1653623;85;21034;-77
2022/04/17 05:29:56;;;;;;;3.47;2.27;;;;;;;6.32;70.77;100779.29;1651251;84;21142;-77
2022/04/17 05:32:23;;;;;;;3.72;2.33;;;;;;;6.34;70.57;100779.86;1650873;85;21912;-74
2022/04/17 05:34:52;;;;;;;2.50;1.90;;;;;;;6.38;70.38;100782.06;1655925;84;21577;-77
2022/04/17 05:37:19;;;;;;;2.75;1.77;;;;;;;6.40;70.18;100780.81;1654959;84;21137;-76
2022/04/17 05:39:48;;;;;;;2.90;1.90;;;;;;;6.42;70.00;100788.57;1666225;84;21066;-75
2022/04/17 05:42:16;;;;;;;2.70;1.90;;;;;;;6.45;69.74;100774.83;1648269;84;21065;-77
2022/04/17 05:44:45;;;;;;;3.17;2.20;;;;;;;6.49;69.65;100777.34;1651039;84;21079;-77
2022/04/17 05:47:13;;;;;;;2.92;2.02;;;;;;;6.56;69.66;100776.22;1650085;85;21116;-77
2022/04/17 05:49:39;;;;;;;2.58;1.80;;;;;;;6.64;69.51;100780.91;1658393;84;21169;-77
2022/04/17 05:52:06;;;;;;;2.85;1.90;;;;;;;6.68;69.42;100774.95;1685663;83;21358;-77
2022/04/17 05:54:33;;;;;;;2.60;1.80;;;;;;;6.74;69.36;100774.54;1686615;83;21038;-76
2022/04/17 05:57:02;;;;;;;2.17;1.65;;;;;;;6.69;68.98;100778.41;1685325;83;20967;-76
2022/04/17 05:59:30;;;;;;;2.60;1.70;;;;;;;6.66;69.28;100779.66;1686787;83;21120;-75
2022/04/17 06:01:57;;;;;;;2.80;1.90;;;;;;;6.71;69.33;100778.97;1682711;83;21147;-76
2022/04/17 06:04:25;;;;;;;3.30;2.00;;;;;;;6.73;69.11;100778.23;1677293;83;21074;-77
2022/04/17 06:06:52;;;;;;;3.58;2.10;;;;;;;6.69;68.74;100777.88;1684145;83;21122;-76
2022/04/17 06:09:19;;;;;;;3.65;2.15;;;;;;;6.68;68.93;100778.09;1686466;83;21082;-76
2022/04/17 06:11:45;;;;;;;3.27;2.37;;;;;;;6.67;68.89;100774.63;1687282;83;21003;-76
2022/04/17 06:14:11;;;;;;;3.42;2.45;;;;;;;6.69;68.89;100779.21;1682288;83;21218;-76
2022/04/17 06:16:40;;;;;;;3.30;2.50;;;;;;;6.72;68.90;100769.99;1683013;83;21124;-76
2022/04/17 06:19:09;;;;;;;4.12;2.30;;;;;;;6.85;69.10;100776.96;1701567;84;21008;-76
2022/04/17 06:21:37;;;;;;;3.17;2.40;;;;;;;6.98;69.00;100776.77;1695231;83;21046;-76
2022/04/17 06:24:05;;;;;;;3.67;2.40;;;;;;;7.05;68.51;100780.93;1688751;83;21058;-76
2022/04/17 06:26:34;;;;;;;3.10;1.80;;;;;;;7.04;68.05;100781.97;1698936;83;21155;-76
2022/04/17 06:29:05;;;;;;;3.20;2.10;;;;;;;7.01;68.12;100781.62;1688808;83;21137;-76
2022/04/17 06:31:31;;;;;;;2.75;2.02;;;;;;;6.96;68.11;100780.95;1680739;83;21117;-77
2022/04/17 06:34:00;;;;;;;3.92;2.30;;;;;;;6.94;68.16;100782.22;1687972;83;21110;-76
2022/04/17 06:36:29;;;;;;;4.30;2.58;;;;;;;6.91;67.94;100783.50;1684248;83;21573;-75
2022/04/17 06:38:55;;;;;;;3.35;2.12;;;;;;;6.86;67.81;100795.83;1685712;83;21147;-76
2022/04/17 06:41:22;;;;;;;2.95;2.10;;;;;;;6.76;67.65;100795.84;1659827;84;21609;-76
2022/04/17 06:43:51;;;;;;;3.40;2.05;;;;;;;6.67;68.08;100801.17;1690485;84;21031;-76
2022/04/17 06:46:18;;;;;;;3.17;2.22;;;;;;;6.61;68.17;100801.27;1688624;83;21575;-77
2022/04/17 06:48:44;;;;;;;4.15;2.40;;;;;;;6.50;68.44;100807.63;1679065;84;21045;-76
2022/04/17 06:51:12;;;;;;;3.70;2.65;;;;;;;6.29;68.66;100801.48;1671880;84;21172;-74
2022/04/17 06:53:40;;;;;;;3.42;2.67;;;;;;;6.11;69.06;100812.88;1651566;84;21139;-76
2022/04/17 06:56:08;;;;;;;3.65;2.70;;;;;;;6.00;69.50;100803.83;1622074;84;21720;-74
2022/04/17 06:58:35;;;;;;;3.85;2.80;;;;;;;5.95;70.06;100812.14;1649201;84;21118;-75
2022/04/17 07:01:02;;;;;;;4.53;2.90;;;;;;;5.93;70.67;100816.87;1650905;84;21058;-75
2022/04/17 07:03:28;;;;;;;4.03;2.42;;;;;;;5.91;71.00;100814.91;1681268;83;21217;-74
2022/04/17 07:05:57;;;;;;;3.80;2.95;;;;;;;5.84;71.28;100814.45;1680365;83;21027;-75
2022/04/17 07:08:23;;;;;;;3.75;2.67;;;;;;;5.77;71.43;100816.89;1686842;83;21177;-75
2022/04/17 07:10:52;;;;;;;3.70;2.65;;;;;;;5.70;71.60;100816.95;1688939;83;21086;-76
2022/04/17 07:13:19;;;;;;;3.95;2.92;;;;;;;5.66;71.69;100819.75;1664390;84;21511;-75
2022/04/17 07:15:48;;;;;;;4.08;3.10;;;;;;;5.67;71.93;100822.68;1657653;85;21472;-75
2022/04/17 07:18:17;;;;;;;4.55;3.30;;;;;;;5.68;72.15;100812.37;1680764;83;21147;-75
2022/04/17 07:20:46;;;;;;;4.37;3.05;;;;;;;5.71;72.38;100810.61;1681471;83;21108;-75
2022/04/17 07:23:14;;;;;;;4.03;3.22;;;;;;;5.79;72.57;100809.50;1679177;83;21644;-76
2022/04/17 07:25:41;;;;;;;3.47;2.52;;;;;;;5.87;72.73;100811.37;1683326;83;21113;-75
2022/04/17 07:28:14;;;;;;;4.33;3.00;;;;;;;5.98;72.74;100808.53;1679187;83;21015;-75
2022/04/17 07:30:41;;;;;;;3.65;2.72;;;;;;;6.12;72.88;100817.17;1683855;83;21105;-75
2022/04/17 07:33:07;;;;;;;3.98;2.70;;;;;;;6.34;72.91;100806.91;1680091;83;21002;-76
2022/04/17 07:35:35;;;;;;;3.05;2.20;;;;;;;6.54;72.85;100813.30;1679727;83;21141;-76
2022/04/17 07:38:04;;;;;;;2.85;2.20;;;;;;;6.67;72.37;100806.48;1682872;83;21102;-76
2022/04/17 07:40:34;;;;;;;3.12;2.05;;;;;;;6.68;71.95;100809.95;1687615;83;21574;-74
2022/04/17 07:43:04;;;;;;;3.10;2.27;;;;;;;6.60;71.27;100808.95;1681086;83;21103;-75
2022/04/17 07:45:32;;;;;;;3.60;2.40;;;;;;;6.44;70.96;100804.53;1679657;83;21092;-76
2022/04/17 07:47:59;;;;;;;3.40;2.00;;;;;;;6.34;71.04;100805.06;1678049;83;21081;-75
2022/04/17 07:50:31;;;;;;;2.90;2.08;;;;;;;6.30;71.21;100803.09;1671136;85;21038;-75
2022/04/17 07:52:59;;;;;;;3.62;2.58;;;;;;;6.30;71.34;100805.73;1675912;83;21246;-75
2022/04/17 07:55:25;;;;;;;4.05;2.92;;;;;;;6.38;71.53;100800.64;1654033;84;21064;-75
2022/04/17 08:00:57;;;;;;;4.53;3.70;;;;;;;6.76;72.19;100801.69;1687116;82;21568;-75
2022/04/17 08:04:17;;;;;;;5.00;3.60;;;;;;;7.04;72.17;100793.92;1686671;83;21424;-76
2022/04/17 08:05:54;;;;;;;4.00;3.05;;;;;;;7.36;71.72;100792.81;1652904;84;21541;-75
2022/04/17 08:08:22;;;;;;;2.50;1.92;;;;;;;7.48;70.31;100783.00;1683706;82;20968;-79
2022/04/17 08:10:49;;;;;;;2.10;1.40;;;;;;;7.43;69.62;100792.17;1685964;83;21026;-76
2022/04/17 08:13:17;;;;;;;1.75;1.47;;;;;;;7.27;68.64;100811.76;1652703;85;21126;-76
2022/04/17 08:15:45;;;;;;;1.75;1.20;;;;;;;7.13;68.51;100801.55;1658379;84;21035;-76
2022/04/17 08:18:14;;;;;;;1.27;1.00;;;;;;;7.04;68.51;100797.91;1660057;85;21086;-77
2022/04/17 08:20:40;;;;;;;0.80;0.78;;;;;;;6.97;68.26;100797.70;1687950;83;21082;-76
2022/04/17 08:23:08;;;;;;;1.30;0.90;;;;;;;6.84;68.12;100800.55;1688274;83;21004;-76
2022/04/17 08:25:38;;;;;;;2.20;1.22;;;;;;;6.71;68.59;100802.86;1675069;84;21054;-77
2022/04/17 08:28:07;;;;;;;1.98;1.25;;;;;;;6.66;68.79;100809.38;1658342;85;21035;-76
2022/04/17 08:30:37;;;;;;;1.92;1.30;;;;;;;6.66;69.09;100807.53;1698540;84;21165;-77
2022/04/17 08:33:07;;;;;;;2.30;1.47;;;;;;;6.73;69.29;100808.24;1686616;83;21724;-76
2022/04/17 08:35:34;;;;;;;2.30;1.30;;;;;;;6.83;69.51;100810.36;1679685;83;21499;-75
2022/04/17 08:38:01;;;;;;;1.50;1.32;;;;;;;7.00;69.42;100798.05;1682342;83;21058;-76
2022/04/17 08:40:28;;;;;;;1.70;1.07;;;;;;;7.20;69.60;100795.61;1682244;83;21098;-75
2022/04/17 08:42:55;;;;;;;1.60;1.00;;;;;;;7.35;69.30;100781.90;1660289;84;21156;-77
2022/04/17 08:45:23;;;;;;;1.57;0.95;;;;;;;7.44;68.08;100786.64;1663343;84;21577;-76
2022/04/17 08:47:53;;;;;;;1.57;1.10;;;;;;;7.53;66.88;100780.45;1683530;83;42407;-77
2022/04/17 08:50:21;;;;;;;1.72;1.22;;;;;;;7.67;66.42;100783.70;1656786;84;21040;-75
2022/04/17 08:52:50;;;;;;;2.08;1.15;;;;;;;7.78;65.04;100776.76;1691853;83;20975;-74
2022/04/17 08:55:17;;;;;;;2.20;1.22;;;;;;;7.77;65.11;100780.47;1671120;85;21162;-75
2022/04/17 08:57:44;;;;;;;1.02;0.80;;;;;;;7.80;65.12;100787.45;1638879;86;21000;-74
2022/04/17 09:00:14;;;;;;;2.42;1.20;;;;;;;7.82;64.73;100793.86;1690087;84;21031;-74
2022/04/17 09:02:40;;;;;;;2.12;1.30;;;;;;;7.82;64.62;100786.69;1695785;84;21063;-75
2022/04/17 09:05:11;;;;;;;2.10;1.47;;;;;;;7.90;63.96;100786.87;1693005;83;21023;-77
2022/04/17 09:07:51;;;;;;;2.15;1.42;;;;;;;7.99;63.14;100788.11;1689160;83;21035;-75
2022/04/17 09:10:30;;;;;;;1.60;1.20;;;;;;;8.07;63.17;100785.09;1699171;84;20988;-76
2022/04/17 09:13:01;;;;;;;1.92;1.40;;;;;;;8.13;62.73;100781.50;1663789;85;21023;-76
2022/04/17 09:15:34;;;;;;;1.87;1.50;;;;;;;8.21;62.52;100793.09;1690694;83;21145;-75
2022/04/17 09:18:07;;;;;;;2.00;1.40;;;;;;;8.34;61.79;100786.70;1684968;83;21046;-76
2022/04/17 09:20:36;;;;;;;2.02;1.50;;;;;;;8.44;61.16;100780.80;1690606;83;20996;-75
2022/04/17 09:23:04;;;;;;;2.40;1.70;;;;;;;8.49;61.02;100788.06;1667376;84;21861;-75
2022/04/17 09:25:33;;;;;;;2.37;1.52;;;;;;;8.59;61.33;100785.09;1732957;82;20969;-75
2022/04/17 09:28:03;;;;;;;2.92;2.00;;;;;;;8.62;60.50;100773.97;1711097;82;21109;-76
2022/04/17 09:30:33;;;;;;;2.00;1.37;;;;;;;8.54;60.79;100792.97;1682965;82;21062;-75
2022/04/17 09:33:06;;;;;;;2.58;1.67;;;;;;;8.31;60.85;100799.15;1686625;82;21087;-76
2022/04/17 09:35:33;;;;;;;1.80;1.10;;;;;;;7.96;61.09;100807.19;1685072;83;21051;-76
2022/04/17 09:38:06;;;;;;;3.90;1.80;;;;;;;7.54;62.31;100815.31;1664526;84;21711;-77
2022/04/17 09:40:36;;;;;;;4.95;2.55;;;;;;;7.06;62.91;100806.97;1656773;84;21123;-75
2022/04/17 09:43:11;;;;;;;4.72;2.42;;;;;;;6.62;64.04;100809.54;1679499;83;21092;-76
2022/04/17 09:46:06;;;;;;;4.35;2.30;;;;;;;6.40;65.42;100796.73;1683554;83;21265;-75
2022/04/17 09:48:39;;;;;;;4.40;3.02;;;;;;;6.32;66.38;100805.81;1681546;83;21084;-77
2022/04/17 09:51:26;;;;;;;6.17;4.12;;;;;;;6.30;67.34;100799.91;1681826;83;21074;-78
2022/04/17 09:54:06;;;;;;;6.37;4.12;;;;;;;6.33;67.67;100799.47;1681972;83;21031;-75
2022/04/17 09:56:39;;;;;;;5.67;3.80;;;;;;;6.42;67.93;100799.18;1682657;83;21602;-76
2022/04/17 09:59:21;;;;;;;4.90;3.30;;;;;;;6.61;68.12;100795.44;1685603;83;21805;-76
2022/04/17 10:01:52;;;;;;;3.27;2.17;;;;;;;6.85;68.03;100784.93;1678462;83;20967;-76
2022/04/17 10:04:24;;;;;;;1.35;1.05;;;;;;;7.09;67.57;100791.91;1670826;85;21435;-74
2022/04/17 10:06:54;;;;;;;1.95;1.30;;;;;;;7.37;66.10;100791.77;1698367;83;21046;-76
2022/04/17 10:09:22;;;;;;;1.40;1.00;;;;;;;7.60;65.41;100781.17;1697928;83;21021;-77
2022/04/17 10:11:51;;;;;;;1.42;1.00;;;;;;;7.89;63.79;100778.58;1679954;83;21558;-77
2022/04/17 10:14:19;;;;;;;1.90;1.10;;;;;;;8.06;61.73;100782.16;1684507;83;21023;-76
2022/04/17 10:16:48;;;;;;;1.37;1.05;;;;;;;8.17;60.10;100781.31;1652374;84;20990;-76
2022/04/17 10:19:19;;;;;;;1.60;1.32;;;;;;;8.27;59.32;100779.91;1682770;83;21096;-74
2022/04/17 10:21:47;;;;;;;1.67;1.20;;;;;;;8.41;58.33;100763.44;1658392;85;21680;-75
2022/04/17 10:24:16;;;;;;;2.05;1.47;;;;;;;8.61;57.07;100746.23;1666179;84;21111;-77
2022/04/17 10:26:50;;;;;;;2.75;1.62;;;;;;;8.82;56.33;100750.88;1661888;84;21215;-77
2022/04/17 10:29:46;;;;;;;1.95;1.45;;;;;;;8.98;56.93;100745.27;1696116;84;21079;-73
2022/04/17 10:32:53;;;;;;;1.82;1.42;;;;;;;9.08;58.71;100760.61;1695544;84;21047;-75
2022/04/17 10:35:54;;;;;;;2.10;1.30;;;;;;;8.91;58.59;100764.59;1686690;83;20984;-76
2022/04/17 10:38:34;;;;;;;2.85;1.50;;;;;;;8.60;59.53;100770.73;1631593;85;21258;-76
2022/04/17 10:41:07;;;;;;;1.62;1.20;;;;;;;8.42;60.07;100768.23;1662191;84;21014;-77
2022/04/17 10:43:50;;;;;;;1.50;1.20;;;;;;;8.26;59.65;100779.10;1699087;84;21550;-76
2022/04/17 10:46:22;;;;;;;1.70;1.10;;;;;;;8.06;59.23;100773.34;1668977;84;21126;-77
2022/04/17 10:48:58;;;;;;;2.15;1.40;;;;;;;7.94;58.58;100768.87;1681821;83;21498;-77
2022/04/17 10:51:32;;;;;;;2.08;1.45;;;;;;;7.86;59.21;100776.39;1656018;86;21465;-77
2022/04/17 10:54:10;;;;;;;2.90;1.70;;;;;;;7.82;59.06;100769.92;1667985;86;21435;-76
2022/04/17 10:56:41;;;;;;;3.15;1.70;;;;;;;7.82;59.16;100773.91;1670700;83;21075;-77
2022/04/17 10:59:18;;;;;;;2.58;1.50;;;;;;;7.84;59.50;100773.17;1666768;86;21062;-77
2022/04/17 11:02:11;;;;;;;2.62;1.65;;;;;;;7.87;59.21;100776.17;1670548;83;21162;-77
2022/04/17 11:04:41;;;;;;;3.22;1.92;;;;;;;7.82;58.96;100773.91;1668275;86;21802;-76
2022/04/17 11:07:13;;;;;;;3.10;1.90;;;;;;;7.78;59.09;100776.76;1660402;84;21011;-75
2022/04/17 11:09:44;;;;;;;3.75;2.00;;;;;;;7.78;58.43;100765.59;1695999;84;20971;-75
2022/04/17 11:12:29;;;;;;;2.58;1.70;;;;;;;7.83;58.38;100770.20;1657072;84;21105;-76
2022/04/17 11:15:06;;;;;;;3.50;2.10;;;;;;;7.91;58.28;100760.55;1667931;85;21106;-75
2022/04/17 11:17:34;;;;;;;3.65;2.10;;;;;;;8.05;58.00;100767.75;1678642;83;21030;-75
2022/04/17 11:20:02;;;;;;;3.15;2.15;;;;;;;8.18;57.79;100748.86;1593213;86;21034;-75
2022/04/17 11:22:34;;;;;;;3.27;2.00;;;;;;;8.29;57.83;100748.03;1640730;83;21051;-74
2022/04/17 11:25:05;;;;;;;3.22;2.17;;;;;;;8.44;57.73;100741.67;1670004;84;21031;-75
2022/04/17 11:27:53;;;;;;;3.30;2.10;;;;;;;8.49;56.38;100736.98;1682473;83;21133;-75
2022/04/17 11:30:25;;;;;;;2.80;1.80;;;;;;;8.56;56.51;100728.33;1670250;83;21281;-75
2022/04/17 11:32:53;;;;;;;2.80;2.00;;;;;;;8.70;56.28;100727.50;1683502;83;21431;-76
2022/04/17 11:35:24;;;;;;;3.15;2.00;;;;;;;8.84;55.10;100734.65;1695844;84;21074;-77
2022/04/17 11:38:06;;;;;;;2.98;2.00;;;;;;;8.87;53.77;100722.98;1696257;84;22584;-75
2022/04/17 11:40:36;;;;;;;2.62;1.72;;;;;;;8.91;53.74;100724.11;1696657;83;21056;-76
2022/04/17 11:43:13;;;;;;;2.58;1.77;;;;;;;9.02;53.06;100714.98;1696122;84;21113;-75
2022/04/17 11:45:42;;;;;;;2.55;1.65;;;;;;;9.17;52.70;100715.20;1695826;84;21124;-76
2022/04/17 11:48:14;;;;;;;2.92;1.70;;;;;;;9.37;52.38;100726.68;1692504;83;21637;-76
2022/04/17 11:50:41;;;;;;;2.87;1.70;;;;;;;9.54;51.71;100719.98;1664055;84;21543;-76
2022/04/17 11:53:13;;;;;;;2.58;1.40;;;;;;;9.64;51.01;100725.48;1699095;84;21245;-76
2022/04/17 11:55:42;;;;;;;2.50;1.70;;;;;;;9.74;50.80;100721.61;1685700;82;21130;-76
2022/04/17 11:58:11;;;;;;;2.70;1.80;;;;;;;9.73;50.45;100724.52;1693405;83;21055;-77
2022/04/17 12:00:38;;;;;;;2.25;1.42;;;;;;;9.62;51.22;100722.24;1680208;83;21052;-77